sensor_id;sensor_type;location;lat;lon;timestamp;P1;durP1;ratioP1;P2;durP2;ratioP2
15354;SDS011;7777;52.254;9.618;2023-06-26T00:01:23;5.43;;;4.93;;
15354;SDS011;7777;52.254;9.618;2023-06-26T00:03:49;6.47;;;5.13;;
15354;SDS011;7777;52.254;9.618;2023-06-26T00:06:14;7.00;;;5.03;;
15354;SDS011;7777;52.254;9.618;2023-06-26T00:08:40;6.03;;;4.83;;
15354;SDS011;7777;52.254;9.618;2023-06-26T00:11:06;7.57;;;4.93;;
15354;SDS011;7777;52.254;9.618;2023-06-26T00:13:33;7.30;;;5.63;;
15354;SDS011;7777;52.254;9.618;2023-06-26T00:15:59;5.80;;;5.00;;
15354;SDS011;7777;52.254;9.618;2023-06-26T00:18:28;5.47;;;4.90;;
15354;SDS011;7777;52.254;9.618;2023-06-26T00:20:54;6.23;;;5.30;;
15354;SDS011;7777;52.254;9.618;2023-06-26T00:23:20;5.63;;;4.83;;
15354;SDS011;7777;52.254;9.618;2023-06-26T00:25:45;6.57;;;4.93;;
15354;SDS011;7777;52.254;9.618;2023-06-26T00:28:11;5.90;;;4.90;;
15354;SDS011;7777;52.254;9.618;2023-06-26T00:30:37;6.17;;;5.00;;
15354;SDS011;7777;52.254;9.618;2023-06-26T00:33:03;6.03;;;4.97;;
15354;SDS011;7777;52.254;9.618;2023-06-26T00:35:29;6.27;;;4.87;;
15354;SDS011;7777;52.254;9.618;2023-06-26T00:37:54;6.53;;;5.00;;
15354;SDS011;7777;52.254;9.618;2023-06-26T00:40:20;6.33;;;4.90;;
15354;SDS011;7777;52.254;9.618;2023-06-26T00:42:46;4.90;;;4.40;;
15354;SDS011;7777;52.254;9.618;2023-06-26T00:45:11;13.07;;;5.57;;
15354;SDS011;7777;52.254;9.618;2023-06-26T00:47:37;8.60;;;5.43;;
15354;SDS011;7777;52.254;9.618;2023-06-26T00:50:04;5.33;;;4.80;;
15354;SDS011;7777;52.254;9.618;2023-06-26T00:52:31;6.47;;;4.53;;
15354;SDS011;7777;52.254;9.618;2023-06-26T00:54:57;9.87;;;5.20;;
15354;SDS011;7777;52.254;9.618;2023-06-26T00:57:23;8.07;;;5.13;;
15354;SDS011;7777;52.254;9.618;2023-06-26T00:59:49;5.83;;;4.83;;
15354;SDS011;7777;52.254;9.618;2023-06-26T01:02:15;8.20;;;4.57;;
15354;SDS011;7777;52.254;9.618;2023-06-26T01:04:46;5.70;;;4.93;;
15354;SDS011;7777;52.254;9.618;2023-06-26T01:07:16;6.90;;;4.70;;
15354;SDS011;7777;52.254;9.618;2023-06-26T01:09:45;7.13;;;5.33;;
15354;SDS011;7777;52.254;9.618;2023-06-26T01:12:13;5.50;;;4.63;;
15354;SDS011;7777;52.254;9.618;2023-06-26T01:14:39;5.60;;;5.00;;
15354;SDS011;7777;52.254;9.618;2023-06-26T01:17:05;6.77;;;4.97;;
15354;SDS011;7777;52.254;9.618;2023-06-26T01:19:32;7.07;;;5.07;;
15354;SDS011;7777;52.254;9.618;2023-06-26T01:22:17;6.43;;;4.90;;
15354;SDS011;7777;52.254;9.618;2023-06-26T01:27:44;5.57;;;4.60;;
15354;SDS011;7777;52.254;9.618;2023-06-26T01:30:12;5.53;;;4.53;;
15354;SDS011;7777;52.254;9.618;2023-06-26T01:32:38;7.57;;;5.30;;
15354;SDS011;7777;52.254;9.618;2023-06-26T01:35:05;5.93;;;4.73;;
15354;SDS011;7777;52.254;9.618;2023-06-26T01:37:33;6.53;;;4.87;;
15354;SDS011;7777;52.254;9.618;2023-06-26T01:39:58;5.93;;;4.63;;
15354;SDS011;7777;52.254;9.618;2023-06-26T01:42:24;5.67;;;4.13;;
15354;SDS011;7777;52.254;9.618;2023-06-26T01:44:50;8.43;;;5.37;;
15354;SDS011;7777;52.254;9.618;2023-06-26T01:47:19;6.80;;;4.77;;
15354;SDS011;7777;52.254;9.618;2023-06-26T01:52:35;5.43;;;4.57;;
15354;SDS011;7777;52.254;9.618;2023-06-26T01:56:06;5.73;;;4.73;;
15354;SDS011;7777;52.254;9.618;2023-06-26T01:58:26;6.93;;;4.93;;
15354;SDS011;7777;52.254;9.618;2023-06-26T02:00:53;5.67;;;4.80;;
15354;SDS011;7777;52.254;9.618;2023-06-26T02:03:19;5.70;;;4.53;;
15354;SDS011;7777;52.254;9.618;2023-06-26T02:05:45;9.70;;;4.80;;
15354;SDS011;7777;52.254;9.618;2023-06-26T02:08:13;6.70;;;4.87;;
15354;SDS011;7777;52.254;9.618;2023-06-26T02:10:40;5.97;;;5.13;;
15354;SDS011;7777;52.254;9.618;2023-06-26T02:13:06;7.53;;;4.43;;
15354;SDS011;7777;52.254;9.618;2023-06-26T02:15:31;4.73;;;4.17;;
15354;SDS011;7777;52.254;9.618;2023-06-26T02:17:57;6.67;;;4.73;;
15354;SDS011;7777;52.254;9.618;2023-06-26T02:20:23;6.87;;;4.83;;
15354;SDS011;7777;52.254;9.618;2023-06-26T02:22:48;4.73;;;3.87;;
15354;SDS011;7777;52.254;9.618;2023-06-26T02:25:14;8.00;;;4.30;;
15354;SDS011;7777;52.254;9.618;2023-06-26T02:27:40;6.47;;;4.87;;
15354;SDS011;7777;52.254;9.618;2023-06-26T02:30:07;6.97;;;4.03;;
15354;SDS011;7777;52.254;9.618;2023-06-26T02:32:34;4.63;;;4.10;;
15354;SDS011;7777;52.254;9.618;2023-06-26T02:35:00;5.33;;;4.57;;
15354;SDS011;7777;52.254;9.618;2023-06-26T02:37:26;5.40;;;4.30;;
15354;SDS011;7777;52.254;9.618;2023-06-26T02:39:52;5.03;;;4.53;;
15354;SDS011;7777;52.254;9.618;2023-06-26T02:42:18;5.13;;;4.40;;
15354;SDS011;7777;52.254;9.618;2023-06-26T02:44:43;5.90;;;4.20;;
15354;SDS011;7777;52.254;9.618;2023-06-26T02:47:09;5.07;;;4.57;;
15354;SDS011;7777;52.254;9.618;2023-06-26T02:49:35;6.00;;;4.40;;
15354;SDS011;7777;52.254;9.618;2023-06-26T02:52:00;5.20;;;4.70;;
15354;SDS011;7777;52.254;9.618;2023-06-26T02:54:26;6.17;;;5.03;;
15354;SDS011;7777;52.254;9.618;2023-06-26T02:56:52;5.60;;;4.40;;
15354;SDS011;7777;52.254;9.618;2023-06-26T02:59:18;5.40;;;4.30;;
15354;SDS011;7777;52.254;9.618;2023-06-26T03:01:43;6.63;;;4.53;;
15354;SDS011;7777;52.254;9.618;2023-06-26T03:04:09;4.63;;;4.00;;
15354;SDS011;7777;52.254;9.618;2023-06-26T03:06:35;4.93;;;4.43;;
15354;SDS011;7777;52.254;9.618;2023-06-26T03:09:01;4.90;;;4.00;;
15354;SDS011;7777;52.254;9.618;2023-06-26T03:11:28;5.03;;;4.37;;
15354;SDS011;7777;52.254;9.618;2023-06-26T03:13:53;6.87;;;4.37;;
15354;SDS011;7777;52.254;9.618;2023-06-26T03:16:19;5.37;;;4.40;;
15354;SDS011;7777;52.254;9.618;2023-06-26T03:18:45;5.10;;;4.60;;
15354;SDS011;7777;52.254;9.618;2023-06-26T03:21:11;5.77;;;4.47;;
15354;SDS011;7777;52.254;9.618;2023-06-26T03:23:36;5.50;;;4.40;;
15354;SDS011;7777;52.254;9.618;2023-06-26T03:26:02;5.47;;;4.70;;
15354;SDS011;7777;52.254;9.618;2023-06-26T03:28:28;4.43;;;4.03;;
15354;SDS011;7777;52.254;9.618;2023-06-26T03:30:53;7.30;;;4.80;;
15354;SDS011;7777;52.254;9.618;2023-06-26T03:33:19;7.33;;;4.47;;
15354;SDS011;7777;52.254;9.618;2023-06-26T03:35:45;6.37;;;4.63;;
15354;SDS011;7777;52.254;9.618;2023-06-26T03:38:11;6.23;;;4.53;;
15354;SDS011;7777;52.254;9.618;2023-06-26T03:40:36;5.87;;;4.33;;
15354;SDS011;7777;52.254;9.618;2023-06-26T03:43:02;5.87;;;4.40;;
15354;SDS011;7777;52.254;9.618;2023-06-26T03:45:28;5.50;;;4.70;;
15354;SDS011;7777;52.254;9.618;2023-06-26T03:47:54;10.83;;;4.70;;
15354;SDS011;7777;52.254;9.618;2023-06-26T03:50:19;6.23;;;4.77;;
15354;SDS011;7777;52.254;9.618;2023-06-26T03:52:47;5.80;;;4.77;;
15354;SDS011;7777;52.254;9.618;2023-06-26T03:55:15;6.77;;;4.43;;
15354;SDS011;7777;52.254;9.618;2023-06-26T03:57:42;4.93;;;4.33;;
15354;SDS011;7777;52.254;9.618;2023-06-26T04:00:07;12.87;;;4.87;;
15354;SDS011;7777;52.254;9.618;2023-06-26T04:02:38;6.07;;;5.03;;
15354;SDS011;7777;52.254;9.618;2023-06-26T04:05:04;6.67;;;4.57;;
15354;SDS011;7777;52.254;9.618;2023-06-26T04:07:30;6.80;;;4.40;;
15354;SDS011;7777;52.254;9.618;2023-06-26T04:09:57;4.50;;;3.93;;
15354;SDS011;7777;52.254;9.618;2023-06-26T04:12:23;7.60;;;4.33;;
15354;SDS011;7777;52.254;9.618;2023-06-26T04:14:48;7.10;;;4.17;;
15354;SDS011;7777;52.254;9.618;2023-06-26T04:17:14;7.10;;;4.30;;
15354;SDS011;7777;52.254;9.618;2023-06-26T04:19:40;5.63;;;4.40;;
15354;SDS011;7777;52.254;9.618;2023-06-26T04:22:06;5.07;;;4.43;;
15354;SDS011;7777;52.254;9.618;2023-06-26T04:24:34;5.20;;;4.33;;
15354;SDS011;7777;52.254;9.618;2023-06-26T04:27:00;5.80;;;4.67;;
15354;SDS011;7777;52.254;9.618;2023-06-26T04:29:26;6.37;;;4.37;;
15354;SDS011;7777;52.254;9.618;2023-06-26T04:31:52;5.57;;;4.70;;
15354;SDS011;7777;52.254;9.618;2023-06-26T04:34:26;6.00;;;4.97;;
15354;SDS011;7777;52.254;9.618;2023-06-26T04:36:53;4.93;;;4.20;;
15354;SDS011;7777;52.254;9.618;2023-06-26T04:39:19;5.50;;;4.83;;
15354;SDS011;7777;52.254;9.618;2023-06-26T04:41:45;6.07;;;4.40;;
15354;SDS011;7777;52.254;9.618;2023-06-26T04:44:11;7.27;;;4.87;;
15354;SDS011;7777;52.254;9.618;2023-06-26T04:46:37;5.37;;;4.27;;
15354;SDS011;7777;52.254;9.618;2023-06-26T04:49:07;6.13;;;4.83;;
15354;SDS011;7777;52.254;9.618;2023-06-26T04:51:33;6.93;;;4.77;;
15354;SDS011;7777;52.254;9.618;2023-06-26T04:54:05;7.13;;;4.83;;
15354;SDS011;7777;52.254;9.618;2023-06-26T04:56:32;5.23;;;4.40;;
15354;SDS011;7777;52.254;9.618;2023-06-26T04:58:58;5.43;;;4.53;;
15354;SDS011;7777;52.254;9.618;2023-06-26T05:01:24;6.40;;;4.63;;
15354;SDS011;7777;52.254;9.618;2023-06-26T05:03:50;9.57;;;4.93;;
15354;SDS011;7777;52.254;9.618;2023-06-26T05:06:15;5.10;;;4.60;;
15354;SDS011;7777;52.254;9.618;2023-06-26T05:08:41;7.53;;;5.07;;
15354;SDS011;7777;52.254;9.618;2023-06-26T05:11:07;7.20;;;4.90;;
15354;SDS011;7777;52.254;9.618;2023-06-26T05:13:32;7.40;;;4.70;;
15354;SDS011;7777;52.254;9.618;2023-06-26T05:15:58;5.50;;;4.80;;
15354;SDS011;7777;52.254;9.618;2023-06-26T05:18:24;7.37;;;4.63;;
15354;SDS011;7777;52.254;9.618;2023-06-26T05:20:50;8.37;;;4.37;;
15354;SDS011;7777;52.254;9.618;2023-06-26T05:23:16;7.80;;;4.43;;
15354;SDS011;7777;52.254;9.618;2023-06-26T05:25:42;7.97;;;4.73;;
15354;SDS011;7777;52.254;9.618;2023-06-26T05:28:08;5.67;;;4.93;;
15354;SDS011;7777;52.254;9.618;2023-06-26T05:30:38;5.57;;;4.67;;
15354;SDS011;7777;52.254;9.618;2023-06-26T05:33:04;6.10;;;4.83;;
15354;SDS011;7777;52.254;9.618;2023-06-26T05:35:31;8.80;;;4.97;;
15354;SDS011;7777;52.254;9.618;2023-06-26T05:37:58;5.10;;;4.57;;
15354;SDS011;7777;52.254;9.618;2023-06-26T05:40:25;6.63;;;4.60;;
15354;SDS011;7777;52.254;9.618;2023-06-26T05:42:51;8.77;;;4.53;;
15354;SDS011;7777;52.254;9.618;2023-06-26T05:45:17;6.47;;;5.10;;
15354;SDS011;7777;52.254;9.618;2023-06-26T05:47:42;6.73;;;4.57;;
15354;SDS011;7777;52.254;9.618;2023-06-26T05:50:09;7.73;;;4.97;;
15354;SDS011;7777;52.254;9.618;2023-06-26T05:52:35;5.70;;;4.87;;
15354;SDS011;7777;52.254;9.618;2023-06-26T05:55:03;5.40;;;4.43;;
15354;SDS011;7777;52.254;9.618;2023-06-26T05:57:30;8.07;;;5.20;;
15354;SDS011;7777;52.254;9.618;2023-06-26T05:59:56;5.63;;;4.90;;
15354;SDS011;7777;52.254;9.618;2023-06-26T06:02:23;7.57;;;4.60;;
15354;SDS011;7777;52.254;9.618;2023-06-26T06:04:48;7.63;;;4.87;;
15354;SDS011;7777;52.254;9.618;2023-06-26T06:07:14;6.97;;;5.03;;
15354;SDS011;7777;52.254;9.618;2023-06-26T06:09:40;6.10;;;4.87;;
15354;SDS011;7777;52.254;9.618;2023-06-26T06:12:06;6.57;;;4.80;;
15354;SDS011;7777;52.254;9.618;2023-06-26T06:14:33;6.63;;;4.50;;
15354;SDS011;7777;52.254;9.618;2023-06-26T06:17:00;5.93;;;4.77;;
15354;SDS011;7777;52.254;9.618;2023-06-26T06:19:26;7.83;;;5.00;;
15354;SDS011;7777;52.254;9.618;2023-06-26T06:21:52;6.43;;;5.07;;
15354;SDS011;7777;52.254;9.618;2023-06-26T06:24:18;7.20;;;5.33;;
15354;SDS011;7777;52.254;9.618;2023-06-26T06:26:44;6.27;;;4.50;;
15354;SDS011;7777;52.254;9.618;2023-06-26T06:29:13;5.93;;;4.90;;
15354;SDS011;7777;52.254;9.618;2023-06-26T06:31:39;7.70;;;5.20;;
15354;SDS011;7777;52.254;9.618;2023-06-26T06:34:05;5.87;;;4.97;;
15354;SDS011;7777;52.254;9.618;2023-06-26T06:36:30;7.03;;;5.23;;
15354;SDS011;7777;52.254;9.618;2023-06-26T06:38:56;7.27;;;4.63;;
15354;SDS011;7777;52.254;9.618;2023-06-26T06:41:22;6.80;;;5.07;;
15354;SDS011;7777;52.254;9.618;2023-06-26T06:43:48;7.53;;;5.47;;
15354;SDS011;7777;52.254;9.618;2023-06-26T06:46:13;5.50;;;4.63;;
15354;SDS011;7777;52.254;9.618;2023-06-26T06:48:39;7.70;;;5.30;;
15354;SDS011;7777;52.254;9.618;2023-06-26T06:51:05;6.00;;;4.93;;
15354;SDS011;7777;52.254;9.618;2023-06-26T06:53:31;6.73;;;5.23;;
15354;SDS011;7777;52.254;9.618;2023-06-26T06:55:56;5.83;;;4.50;;
15354;SDS011;7777;52.254;9.618;2023-06-26T06:58:22;7.13;;;4.83;;
15354;SDS011;7777;52.254;9.618;2023-06-26T07:00:48;8.13;;;5.20;;
15354;SDS011;7777;52.254;9.618;2023-06-26T07:03:16;5.40;;;4.90;;
15354;SDS011;7777;52.254;9.618;2023-06-26T07:05:41;6.00;;;4.90;;
15354;SDS011;7777;52.254;9.618;2023-06-26T07:08:07;8.27;;;5.00;;
15354;SDS011;7777;52.254;9.618;2023-06-26T07:10:33;7.57;;;5.90;;
15354;SDS011;7777;52.254;9.618;2023-06-26T07:12:59;7.67;;;4.80;;
15354;SDS011;7777;52.254;9.618;2023-06-26T07:15:25;5.67;;;4.73;;
15354;SDS011;7777;52.254;9.618;2023-06-26T07:17:51;6.30;;;4.40;;
15354;SDS011;7777;52.254;9.618;2023-06-26T07:20:17;14.27;;;5.33;;
15354;SDS011;7777;52.254;9.618;2023-06-26T07:22:43;8.37;;;5.60;;
15354;SDS011;7777;52.254;9.618;2023-06-26T07:25:10;7.23;;;5.40;;
15354;SDS011;7777;52.254;9.618;2023-06-26T07:27:36;6.47;;;4.83;;
15354;SDS011;7777;52.254;9.618;2023-06-26T07:30:03;7.13;;;5.00;;
15354;SDS011;7777;52.254;9.618;2023-06-26T07:32:30;6.07;;;4.97;;
15354;SDS011;7777;52.254;9.618;2023-06-26T07:34:55;7.37;;;5.23;;
15354;SDS011;7777;52.254;9.618;2023-06-26T07:37:21;6.63;;;5.53;;
15354;SDS011;7777;52.254;9.618;2023-06-26T07:39:48;5.93;;;5.23;;
15354;SDS011;7777;52.254;9.618;2023-06-26T07:42:14;7.90;;;5.87;;
15354;SDS011;7777;52.254;9.618;2023-06-26T07:44:41;8.90;;;5.30;;
15354;SDS011;7777;52.254;9.618;2023-06-26T07:47:07;6.10;;;5.30;;
15354;SDS011;7777;52.254;9.618;2023-06-26T07:49:33;6.57;;;5.07;;
15354;SDS011;7777;52.254;9.618;2023-06-26T07:52:02;7.23;;;5.57;;
15354;SDS011;7777;52.254;9.618;2023-06-26T07:54:28;7.60;;;5.63;;
15354;SDS011;7777;52.254;9.618;2023-06-26T07:57:01;6.63;;;5.87;;
15354;SDS011;7777;52.254;9.618;2023-06-26T07:59:31;9.97;;;6.17;;
15354;SDS011;7777;52.254;9.618;2023-06-26T08:01:57;10.50;;;6.53;;
15354;SDS011;7777;52.254;9.618;2023-06-26T08:04:25;7.07;;;5.20;;
15354;SDS011;7777;52.254;9.618;2023-06-26T08:06:53;6.87;;;5.30;;
15354;SDS011;7777;52.254;9.618;2023-06-26T08:09:22;6.53;;;5.30;;
15354;SDS011;7777;52.254;9.618;2023-06-26T08:11:51;7.63;;;5.27;;
15354;SDS011;7777;52.254;9.618;2023-06-26T08:14:17;6.13;;;5.30;;
15354;SDS011;7777;52.254;9.618;2023-06-26T08:16:44;7.43;;;5.40;;
15354;SDS011;7777;52.254;9.618;2023-06-26T08:19:11;7.37;;;6.13;;
15354;SDS011;7777;52.254;9.618;2023-06-26T08:21:39;7.33;;;6.00;;
15354;SDS011;7777;52.254;9.618;2023-06-26T08:24:05;8.20;;;6.30;;
15354;SDS011;7777;52.254;9.618;2023-06-26T08:26:31;8.63;;;5.53;;
15354;SDS011;7777;52.254;9.618;2023-06-26T08:28:57;6.30;;;5.20;;
15354;SDS011;7777;52.254;9.618;2023-06-26T08:31:23;6.70;;;5.80;;
15354;SDS011;7777;52.254;9.618;2023-06-26T08:33:49;8.83;;;5.47;;
15354;SDS011;7777;52.254;9.618;2023-06-26T08:36:14;9.10;;;6.37;;
15354;SDS011;7777;52.254;9.618;2023-06-26T08:38:41;9.93;;;6.30;;
15354;SDS011;7777;52.254;9.618;2023-06-26T08:41:07;8.33;;;5.23;;
15354;SDS011;7777;52.254;9.618;2023-06-26T08:43:33;7.50;;;6.27;;
15354;SDS011;7777;52.254;9.618;2023-06-26T08:46:00;9.00;;;6.20;;
15354;SDS011;7777;52.254;9.618;2023-06-26T08:48:26;8.43;;;6.03;;
15354;SDS011;7777;52.254;9.618;2023-06-26T08:50:58;8.13;;;5.73;;
15354;SDS011;7777;52.254;9.618;2023-06-26T08:53:43;10.87;;;6.07;;
15354;SDS011;7777;52.254;9.618;2023-06-26T08:56:22;6.67;;;5.80;;
15354;SDS011;7777;52.254;9.618;2023-06-26T08:58:52;7.00;;;5.97;;
15354;SDS011;7777;52.254;9.618;2023-06-26T09:01:20;8.33;;;6.20;;
15354;SDS011;7777;52.254;9.618;2023-06-26T09:03:46;16.23;;;7.23;;
15354;SDS011;7777;52.254;9.618;2023-06-26T09:06:12;8.97;;;6.10;;
15354;SDS011;7777;52.254;9.618;2023-06-26T09:08:37;7.00;;;6.27;;
15354;SDS011;7777;52.254;9.618;2023-06-26T09:11:03;8.27;;;6.47;;
15354;SDS011;7777;52.254;9.618;2023-06-26T09:13:30;9.13;;;6.60;;
15354;SDS011;7777;52.254;9.618;2023-06-26T09:15:56;10.63;;;6.90;;
15354;SDS011;7777;52.254;9.618;2023-06-26T09:18:22;9.30;;;6.33;;
15354;SDS011;7777;52.254;9.618;2023-06-26T09:20:51;7.93;;;7.10;;
15354;SDS011;7777;52.254;9.618;2023-06-26T09:23:16;10.63;;;6.57;;
15354;SDS011;7777;52.254;9.618;2023-06-26T09:25:42;11.43;;;6.20;;
15354;SDS011;7777;52.254;9.618;2023-06-26T09:28:10;7.43;;;5.90;;
15354;SDS011;7777;52.254;9.618;2023-06-26T09:30:36;12.60;;;6.23;;
15354;SDS011;7777;52.254;9.618;2023-06-26T09:35:43;8.37;;;6.07;;
15354;SDS011;7777;52.254;9.618;2023-06-26T09:38:10;11.60;;;6.57;;
15354;SDS011;7777;52.254;9.618;2023-06-26T09:40:36;8.37;;;6.47;;
15354;SDS011;7777;52.254;9.618;2023-06-26T09:43:05;10.33;;;6.67;;
15354;SDS011;7777;52.254;9.618;2023-06-26T09:45:34;9.00;;;6.13;;
15354;SDS011;7777;52.254;9.618;2023-06-26T09:48:04;7.90;;;6.90;;
15354;SDS011;7777;52.254;9.618;2023-06-26T09:50:34;10.07;;;6.60;;
15354;SDS011;7777;52.254;9.618;2023-06-26T09:53:07;7.90;;;6.30;;
15354;SDS011;7777;52.254;9.618;2023-06-26T09:55:40;11.77;;;6.83;;
15354;SDS011;7777;52.254;9.618;2023-06-26T09:58:09;7.23;;;6.13;;
15354;SDS011;7777;52.254;9.618;2023-06-26T10:00:43;12.50;;;6.50;;
15354;SDS011;7777;52.254;9.618;2023-06-26T10:03:09;12.17;;;6.57;;
15354;SDS011;7777;52.254;9.618;2023-06-26T10:05:42;8.53;;;6.30;;
15354;SDS011;7777;52.254;9.618;2023-06-26T10:08:09;9.10;;;6.70;;
15354;SDS011;7777;52.254;9.618;2023-06-26T10:10:36;14.43;;;6.53;;
15354;SDS011;7777;52.254;9.618;2023-06-26T10:13:04;14.07;;;7.20;;
15354;SDS011;7777;52.254;9.618;2023-06-26T10:15:43;13.13;;;7.90;;
15354;SDS011;7777;52.254;9.618;2023-06-26T10:18:10;11.30;;;8.00;;
15354;SDS011;7777;52.254;9.618;2023-06-26T10:20:37;15.63;;;8.90;;
15354;SDS011;7777;52.254;9.618;2023-06-26T10:23:04;12.40;;;8.67;;
15354;SDS011;7777;52.254;9.618;2023-06-26T10:25:32;15.57;;;10.40;;
15354;SDS011;7777;52.254;9.618;2023-06-26T10:28:02;19.43;;;10.80;;
15354;SDS011;7777;52.254;9.618;2023-06-26T10:30:33;18.47;;;10.73;;
15354;SDS011;7777;52.254;9.618;2023-06-26T10:33:01;14.20;;;10.43;;
15354;SDS011;7777;52.254;9.618;2023-06-26T10:35:29;17.20;;;11.07;;
15354;SDS011;7777;52.254;9.618;2023-06-26T10:38:02;14.17;;;10.67;;
15354;SDS011;7777;52.254;9.618;2023-06-26T10:40:33;12.60;;;10.07;;
15354;SDS011;7777;52.254;9.618;2023-06-26T10:43:08;13.70;;;9.63;;
15354;SDS011;7777;52.254;9.618;2023-06-26T10:45:35;12.23;;;8.87;;
15354;SDS011;7777;52.254;9.618;2023-06-26T10:48:02;12.87;;;9.53;;
15354;SDS011;7777;52.254;9.618;2023-06-26T10:50:29;12.70;;;9.60;;
15354;SDS011;7777;52.254;9.618;2023-06-26T10:56:01;10.50;;;6.67;;
15354;SDS011;7777;52.254;9.618;2023-06-26T10:58:29;12.70;;;7.13;;
15354;SDS011;7777;52.254;9.618;2023-06-26T11:06:31;8.47;;;6.73;;
15354;SDS011;7777;52.254;9.618;2023-06-26T11:14:18;11.37;;;7.33;;
15354;SDS011;7777;52.254;9.618;2023-06-26T11:16:46;8.90;;;6.33;;
15354;SDS011;7777;52.254;9.618;2023-06-26T11:19:13;9.30;;;6.93;;
15354;SDS011;7777;52.254;9.618;2023-06-26T11:21:41;9.10;;;7.50;;
15354;SDS011;7777;52.254;9.618;2023-06-26T11:24:07;11.13;;;7.20;;
15354;SDS011;7777;52.254;9.618;2023-06-26T11:26:37;14.47;;;8.17;;
15354;SDS011;7777;52.254;9.618;2023-06-26T11:29:07;12.10;;;7.07;;
15354;SDS011;7777;52.254;9.618;2023-06-26T11:31:35;8.97;;;6.83;;
15354;SDS011;7777;52.254;9.618;2023-06-26T11:34:07;11.93;;;7.50;;
15354;SDS011;7777;52.254;9.618;2023-06-26T11:36:36;9.80;;;6.77;;
15354;SDS011;7777;52.254;9.618;2023-06-26T11:39:06;11.40;;;7.47;;
15354;SDS011;7777;52.254;9.618;2023-06-26T11:41:33;12.73;;;7.30;;
15354;SDS011;7777;52.254;9.618;2023-06-26T11:44:05;11.17;;;6.60;;
15354;SDS011;7777;52.254;9.618;2023-06-26T11:46:34;9.77;;;6.83;;
15354;SDS011;7777;52.254;9.618;2023-06-26T11:49:04;9.17;;;6.60;;
15354;SDS011;7777;52.254;9.618;2023-06-26T11:51:31;10.50;;;7.13;;
15354;SDS011;7777;52.254;9.618;2023-06-26T11:54:01;9.73;;;7.17;;
15354;SDS011;7777;52.254;9.618;2023-06-26T11:56:29;9.50;;;7.23;;
15354;SDS011;7777;52.254;9.618;2023-06-26T11:59:00;11.00;;;7.60;;
15354;SDS011;7777;52.254;9.618;2023-06-26T12:01:40;10.87;;;7.73;;
15354;SDS011;7777;52.254;9.618;2023-06-26T12:04:10;9.27;;;7.73;;
15354;SDS011;7777;52.254;9.618;2023-06-26T12:06:38;20.20;;;6.20;;
15354;SDS011;7777;52.254;9.618;2023-06-26T12:09:10;10.67;;;5.00;;
15354;SDS011;7777;52.254;9.618;2023-06-26T12:11:41;7.67;;;4.70;;
15354;SDS011;7777;52.254;9.618;2023-06-26T12:14:09;8.53;;;5.03;;
15354;SDS011;7777;52.254;9.618;2023-06-26T12:16:38;9.60;;;5.07;;
15354;SDS011;7777;52.254;9.618;2023-06-26T12:19:04;7.77;;;5.03;;
15354;SDS011;7777;52.254;9.618;2023-06-26T12:24:07;12.03;;;4.43;;
15354;SDS011;7777;52.254;9.618;2023-06-26T12:26:36;9.00;;;4.37;;
15354;SDS011;7777;52.254;9.618;2023-06-26T12:29:05;7.37;;;4.93;;
15354;SDS011;7777;52.254;9.618;2023-06-26T12:31:33;7.33;;;4.57;;
15354;SDS011;7777;52.254;9.618;2023-06-26T12:34:00;6.33;;;4.23;;
15354;SDS011;7777;52.254;9.618;2023-06-26T12:36:27;5.63;;;4.00;;
15354;SDS011;7777;52.254;9.618;2023-06-26T12:38:53;6.57;;;4.67;;
15354;SDS011;7777;52.254;9.618;2023-06-26T12:41:19;7.97;;;3.93;;
15354;SDS011;7777;52.254;9.618;2023-06-26T12:43:49;7.93;;;4.07;;
15354;SDS011;7777;52.254;9.618;2023-06-26T12:46:20;4.87;;;3.47;;
15354;SDS011;7777;52.254;9.618;2023-06-26T12:49:01;7.07;;;3.60;;
15354;SDS011;7777;52.254;9.618;2023-06-26T12:51:27;6.13;;;3.67;;
15354;SDS011;7777;52.254;9.618;2023-06-26T12:53:53;4.63;;;2.73;;
15354;SDS011;7777;52.254;9.618;2023-06-26T12:56:19;5.60;;;3.30;;
15354;SDS011;7777;52.254;9.618;2023-06-26T12:58:46;5.47;;;3.10;;
15354;SDS011;7777;52.254;9.618;2023-06-26T13:01:11;5.70;;;2.93;;
15354;SDS011;7777;52.254;9.618;2023-06-26T13:03:40;6.73;;;3.33;;
15354;SDS011;7777;52.254;9.618;2023-06-26T13:06:06;4.17;;;2.63;;
15354;SDS011;7777;52.254;9.618;2023-06-26T13:08:33;6.87;;;2.90;;
15354;SDS011;7777;52.254;9.618;2023-06-26T13:10:59;6.67;;;2.87;;
15354;SDS011;7777;52.254;9.618;2023-06-26T13:13:25;6.97;;;2.40;;
15354;SDS011;7777;52.254;9.618;2023-06-26T13:15:51;6.47;;;2.97;;
15354;SDS011;7777;52.254;9.618;2023-06-26T13:18:17;7.40;;;2.53;;
15354;SDS011;7777;52.254;9.618;2023-06-26T13:20:43;5.40;;;2.43;;
15354;SDS011;7777;52.254;9.618;2023-06-26T13:23:08;8.80;;;2.80;;
15354;SDS011;7777;52.254;9.618;2023-06-26T13:25:34;9.77;;;3.23;;
15354;SDS011;7777;52.254;9.618;2023-06-26T13:28:00;4.13;;;2.50;;
15354;SDS011;7777;52.254;9.618;2023-06-26T13:30:26;5.17;;;2.03;;
15354;SDS011;7777;52.254;9.618;2023-06-26T13:32:51;4.27;;;2.77;;
15354;SDS011;7777;52.254;9.618;2023-06-26T13:35:17;6.03;;;2.63;;
15354;SDS011;7777;52.254;9.618;2023-06-26T13:37:43;5.60;;;2.30;;
15354;SDS011;7777;52.254;9.618;2023-06-26T13:40:12;4.30;;;2.20;;
15354;SDS011;7777;52.254;9.618;2023-06-26T13:42:38;4.67;;;2.67;;
15354;SDS011;7777;52.254;9.618;2023-06-26T13:45:05;3.90;;;2.40;;
15354;SDS011;7777;52.254;9.618;2023-06-26T13:47:32;4.93;;;2.20;;
15354;SDS011;7777;52.254;9.618;2023-06-26T13:50:02;5.97;;;2.30;;
15354;SDS011;7777;52.254;9.618;2023-06-26T13:52:34;4.63;;;1.90;;
15354;SDS011;7777;52.254;9.618;2023-06-26T13:55:01;4.73;;;2.63;;
15354;SDS011;7777;52.254;9.618;2023-06-26T13:57:29;5.97;;;2.40;;
15354;SDS011;7777;52.254;9.618;2023-06-26T13:59:58;4.27;;;2.30;;
15354;SDS011;7777;52.254;9.618;2023-06-26T14:02:24;5.00;;;2.10;;
15354;SDS011;7777;52.254;9.618;2023-06-26T14:04:51;7.33;;;2.40;;
15354;SDS011;7777;52.254;9.618;2023-06-26T14:07:17;2.27;;;1.60;;
15354;SDS011;7777;52.254;9.618;2023-06-26T14:09:43;3.37;;;2.27;;
15354;SDS011;7777;52.254;9.618;2023-06-26T14:12:11;3.33;;;2.20;;
15354;SDS011;7777;52.254;9.618;2023-06-26T14:14:37;7.53;;;2.23;;
15354;SDS011;7777;52.254;9.618;2023-06-26T14:17:04;4.47;;;2.07;;
15354;SDS011;7777;52.254;9.618;2023-06-26T14:19:41;4.10;;;2.50;;
15354;SDS011;7777;52.254;9.618;2023-06-26T14:22:08;3.33;;;2.17;;
15354;SDS011;7777;52.254;9.618;2023-06-26T14:24:34;4.57;;;2.63;;
15354;SDS011;7777;52.254;9.618;2023-06-26T14:27:00;3.50;;;2.03;;
15354;SDS011;7777;52.254;9.618;2023-06-26T14:29:26;3.93;;;2.17;;
15354;SDS011;7777;52.254;9.618;2023-06-26T14:31:55;3.40;;;2.23;;
15354;SDS011;7777;52.254;9.618;2023-06-26T14:34:23;6.40;;;2.30;;
15354;SDS011;7777;52.254;9.618;2023-06-26T14:36:56;4.67;;;2.33;;
15354;SDS011;7777;52.254;9.618;2023-06-26T14:39:22;5.17;;;2.10;;
15354;SDS011;7777;52.254;9.618;2023-06-26T14:41:51;4.00;;;1.90;;
15354;SDS011;7777;52.254;9.618;2023-06-26T14:44:16;2.73;;;2.00;;
15354;SDS011;7777;52.254;9.618;2023-06-26T14:46:42;2.90;;;1.97;;
15354;SDS011;7777;52.254;9.618;2023-06-26T14:49:08;5.00;;;2.17;;
15354;SDS011;7777;52.254;9.618;2023-06-26T14:51:34;5.10;;;2.20;;
15354;SDS011;7777;52.254;9.618;2023-06-26T14:54:00;4.70;;;1.93;;
15354;SDS011;7777;52.254;9.618;2023-06-26T14:56:26;3.47;;;1.70;;
15354;SDS011;7777;52.254;9.618;2023-06-26T14:58:52;3.37;;;1.73;;
15354;SDS011;7777;52.254;9.618;2023-06-26T15:01:18;6.50;;;2.27;;
15354;SDS011;7777;52.254;9.618;2023-06-26T15:03:45;13.00;;;2.10;;
15354;SDS011;7777;52.254;9.618;2023-06-26T15:06:12;4.73;;;2.27;;
15354;SDS011;7777;52.254;9.618;2023-06-26T15:08:38;5.03;;;2.03;;
15354;SDS011;7777;52.254;9.618;2023-06-26T15:11:12;3.77;;;2.03;;
15354;SDS011;7777;52.254;9.618;2023-06-26T15:13:38;4.47;;;2.13;;
15354;SDS011;7777;52.254;9.618;2023-06-26T15:16:04;7.47;;;1.80;;
15354;SDS011;7777;52.254;9.618;2023-06-26T15:18:33;6.37;;;2.20;;
15354;SDS011;7777;52.254;9.618;2023-06-26T15:21:02;4.47;;;2.07;;
15354;SDS011;7777;52.254;9.618;2023-06-26T15:23:30;3.27;;;1.73;;
15354;SDS011;7777;52.254;9.618;2023-06-26T15:25:56;7.43;;;2.10;;